Hlavní strana
METAR-TAF:

METAR-TAF

Letiště :

Tunis, Tunisko

zeměpisná šířka: 36-50N, zeměpisná délka: 010-14E, výška: 3 m

Aktuální stav počasí

Zpráva byla vytvořena před 20 minutami, v 10:30 UTC
Severoseverozápadní vítr 5 kt, proměnlivý mezi západoseverozápadním a východoseverovýchodním
Teplota 31°C
Vlhkost vzduchu 55%
Tlak 1014 hPa
Viditelnost 10 km a více
Skoro jasno ve výšce 2600 ft
Polojasno ve výšce 4000 ft

METAR: DTTA 221030Z 34005KT 290V060 9999 FEW026 SCT040 31/21 Q1014 NOSIG

Čas: 11:50 (10:50 UTC)

Předpověď počasí

Zpráva byla vytvořena před 5 hodinami a 15 minutami, v 05:35 UTC
Předpověď platná od 22 v 06 UTC do 23 v 06 UTC
Západoseverozápadní vítr 5 kt
Viditelnost 10 km a více
Skoro jasno ve výšce 3300 ft

TAF: DTTA 220535Z 2206/2306 30005KT 9999 FEW033

Stav a předpovědi počasí z více než 4 000 letišť (zprávy METAR a TAF).

Červené a žluté tečky na mapě představují dostupné meteorologické stanice.

Když kurzor umístíte na tečku, zobrazí se název stanice.

Pak kliknutím zobrazíte stav a předpověď počasí.

Chcete-li změnit mapu, kliknutím na zelené tlačítko se znaménkem +mapu přiblížíte, kliknutím na zelené tlačítko se znaménkem – mapu oddálíte a kliknutím na zelené šipky přejdete na sousední mapy.


METAR-TAF: